sensor_id;sensor_type;location;lat;lon;timestamp;P1;durP1;ratioP1;P2;durP2;ratioP2
72275;SDS011;61204;49.980;8.358;2023-08-01T00:00:02;5.78;;;2.75;;
72275;SDS011;61204;49.980;8.358;2023-08-01T00:02:30;6.38;;;2.40;;
72275;SDS011;61204;49.980;8.358;2023-08-01T00:04:56;6.30;;;2.85;;
72275;SDS011;61204;49.980;8.358;2023-08-01T00:07:22;5.13;;;2.35;;
72275;SDS011;61204;49.980;8.358;2023-08-01T00:09:47;6.05;;;2.95;;
72275;SDS011;61204;49.980;8.358;2023-08-01T00:12:15;7.28;;;3.03;;
72275;SDS011;61204;49.980;8.358;2023-08-01T00:14:41;6.38;;;3.10;;
72275;SDS011;61204;49.980;8.358;2023-08-01T00:17:06;5.47;;;2.72;;
72275;SDS011;61204;49.980;8.358;2023-08-01T00:19:32;6.20;;;3.17;;
72275;SDS011;61204;49.980;8.358;2023-08-01T00:21:57;7.43;;;3.47;;
72275;SDS011;61204;49.980;8.358;2023-08-01T00:24:23;6.10;;;2.88;;
72275;SDS011;61204;49.980;8.358;2023-08-01T00:26:48;7.63;;;2.85;;
72275;SDS011;61204;49.980;8.358;2023-08-01T00:29:14;6.97;;;3.08;;
72275;SDS011;61204;49.980;8.358;2023-08-01T00:31:40;5.30;;;3.05;;
72275;SDS011;61204;49.980;8.358;2023-08-01T00:34:05;7.70;;;3.47;;
72275;SDS011;61204;49.980;8.358;2023-08-01T00:36:31;5.38;;;3.60;;
72275;SDS011;61204;49.980;8.358;2023-08-01T00:38:57;4.88;;;2.50;;
72275;SDS011;61204;49.980;8.358;2023-08-01T00:41:23;7.35;;;2.90;;
72275;SDS011;61204;49.980;8.358;2023-08-01T00:43:48;4.00;;;2.55;;
72275;SDS011;61204;49.980;8.358;2023-08-01T00:46:14;5.25;;;2.22;;
72275;SDS011;61204;49.980;8.358;2023-08-01T00:48:42;6.10;;;2.95;;
72275;SDS011;61204;49.980;8.358;2023-08-01T00:51:07;8.48;;;3.17;;
72275;SDS011;61204;49.980;8.358;2023-08-01T00:53:35;5.85;;;3.20;;
72275;SDS011;61204;49.980;8.358;2023-08-01T00:56:01;6.43;;;3.20;;
72275;SDS011;61204;49.980;8.358;2023-08-01T00:58:28;6.43;;;3.22;;
72275;SDS011;61204;49.980;8.358;2023-08-01T01:00:53;8.40;;;3.25;;
72275;SDS011;61204;49.980;8.358;2023-08-01T01:03:20;4.53;;;3.20;;
72275;SDS011;61204;49.980;8.358;2023-08-01T01:05:47;7.45;;;3.53;;
72275;SDS011;61204;49.980;8.358;2023-08-01T01:08:28;5.60;;;3.08;;
72275;SDS011;61204;49.980;8.358;2023-08-01T01:10:54;6.78;;;3.70;;
72275;SDS011;61204;49.980;8.358;2023-08-01T01:13:20;9.60;;;3.40;;
72275;SDS011;61204;49.980;8.358;2023-08-01T01:15:45;7.10;;;3.53;;
72275;SDS011;61204;49.980;8.358;2023-08-01T01:18:11;5.93;;;3.50;;
72275;SDS011;61204;49.980;8.358;2023-08-01T01:20:38;5.95;;;3.20;;
72275;SDS011;61204;49.980;8.358;2023-08-01T01:23:04;5.25;;;2.95;;
72275;SDS011;61204;49.980;8.358;2023-08-01T01:25:33;6.65;;;3.38;;
72275;SDS011;61204;49.980;8.358;2023-08-01T01:28:03;6.15;;;3.10;;
72275;SDS011;61204;49.980;8.358;2023-08-01T01:30:32;6.45;;;3.35;;
72275;SDS011;61204;49.980;8.358;2023-08-01T01:33:00;5.45;;;3.05;;
72275;SDS011;61204;49.980;8.358;2023-08-01T01:35:27;4.68;;;2.88;;
72275;SDS011;61204;49.980;8.358;2023-08-01T01:37:52;9.52;;;3.78;;
72275;SDS011;61204;49.980;8.358;2023-08-01T01:40:18;4.95;;;2.83;;
72275;SDS011;61204;49.980;8.358;2023-08-01T01:42:47;8.45;;;2.90;;
72275;SDS011;61204;49.980;8.358;2023-08-01T01:45:14;4.78;;;3.00;;
72275;SDS011;61204;49.980;8.358;2023-08-01T01:47:40;5.43;;;2.90;;
72275;SDS011;61204;49.980;8.358;2023-08-01T01:50:06;6.05;;;3.00;;
72275;SDS011;61204;49.980;8.358;2023-08-01T01:52:32;5.43;;;2.78;;
72275;SDS011;61204;49.980;8.358;2023-08-01T01:54:58;10.02;;;3.85;;
72275;SDS011;61204;49.980;8.358;2023-08-01T01:57:24;6.78;;;3.47;;
72275;SDS011;61204;49.980;8.358;2023-08-01T01:59:50;6.15;;;3.15;;
72275;SDS011;61204;49.980;8.358;2023-08-01T02:02:15;6.50;;;3.33;;
72275;SDS011;61204;49.980;8.358;2023-08-01T02:04:41;8.77;;;3.22;;
72275;SDS011;61204;49.980;8.358;2023-08-01T02:07:06;8.27;;;3.72;;
72275;SDS011;61204;49.980;8.358;2023-08-01T02:09:32;7.07;;;3.20;;
72275;SDS011;61204;49.980;8.358;2023-08-01T02:11:57;5.38;;;2.92;;
72275;SDS011;61204;49.980;8.358;2023-08-01T02:14:23;7.10;;;3.05;;
72275;SDS011;61204;49.980;8.358;2023-08-01T02:16:48;5.38;;;3.17;;
72275;SDS011;61204;49.980;8.358;2023-08-01T02:19:14;5.50;;;2.92;;
72275;SDS011;61204;49.980;8.358;2023-08-01T02:21:39;5.82;;;3.15;;
72275;SDS011;61204;49.980;8.358;2023-08-01T02:24:07;4.55;;;3.00;;
72275;SDS011;61204;49.980;8.358;2023-08-01T02:26:33;7.03;;;3.10;;
72275;SDS011;61204;49.980;8.358;2023-08-01T02:28:58;4.30;;;2.92;;
72275;SDS011;61204;49.980;8.358;2023-08-01T02:31:26;4.55;;;2.90;;
72275;SDS011;61204;49.980;8.358;2023-08-01T02:33:52;5.65;;;2.22;;
72275;SDS011;61204;49.980;8.358;2023-08-01T02:36:17;3.97;;;2.22;;
72275;SDS011;61204;49.980;8.358;2023-08-01T02:38:43;4.35;;;2.13;;
72275;SDS011;61204;49.980;8.358;2023-08-01T02:41:09;5.53;;;2.70;;
72275;SDS011;61204;49.980;8.358;2023-08-01T02:43:34;3.40;;;2.33;;
72275;SDS011;61204;49.980;8.358;2023-08-01T02:46:04;4.72;;;2.42;;
72275;SDS011;61204;49.980;8.358;2023-08-01T02:48:30;5.10;;;2.17;;
72275;SDS011;61204;49.980;8.358;2023-08-01T02:50:57;5.00;;;2.72;;
72275;SDS011;61204;49.980;8.358;2023-08-01T02:53:25;4.07;;;2.83;;
72275;SDS011;61204;49.980;8.358;2023-08-01T02:55:50;4.75;;;2.40;;
72275;SDS011;61204;49.980;8.358;2023-08-01T02:58:16;5.90;;;2.47;;
72275;SDS011;61204;49.980;8.358;2023-08-01T03:00:41;6.30;;;2.83;;
72275;SDS011;61204;49.980;8.358;2023-08-01T03:03:07;5.13;;;2.78;;
72275;SDS011;61204;49.980;8.358;2023-08-01T03:05:35;5.90;;;2.50;;
72275;SDS011;61204;49.980;8.358;2023-08-01T03:08:04;4.50;;;2.38;;
72275;SDS011;61204;49.980;8.358;2023-08-01T03:10:30;5.03;;;2.47;;
72275;SDS011;61204;49.980;8.358;2023-08-01T03:12:55;4.53;;;2.42;;
72275;SDS011;61204;49.980;8.358;2023-08-01T03:15:21;3.67;;;1.80;;
72275;SDS011;61204;49.980;8.358;2023-08-01T03:17:46;3.13;;;1.67;;
72275;SDS011;61204;49.980;8.358;2023-08-01T03:20:12;3.65;;;2.00;;
72275;SDS011;61204;49.980;8.358;2023-08-01T03:22:38;5.22;;;1.90;;
72275;SDS011;61204;49.980;8.358;2023-08-01T03:25:05;3.97;;;1.90;;
72275;SDS011;61204;49.980;8.358;2023-08-01T03:27:32;2.33;;;1.70;;
72275;SDS011;61204;49.980;8.358;2023-08-01T03:29:59;2.85;;;1.60;;
72275;SDS011;61204;49.980;8.358;2023-08-01T03:32:29;4.35;;;2.10;;
72275;SDS011;61204;49.980;8.358;2023-08-01T03:34:55;3.55;;;1.77;;
72275;SDS011;61204;49.980;8.358;2023-08-01T03:37:23;4.63;;;1.85;;
72275;SDS011;61204;49.980;8.358;2023-08-01T03:39:49;2.72;;;1.85;;
72275;SDS011;61204;49.980;8.358;2023-08-01T03:42:17;3.25;;;1.92;;
72275;SDS011;61204;49.980;8.358;2023-08-01T03:44:42;5.20;;;1.60;;
72275;SDS011;61204;49.980;8.358;2023-08-01T03:47:08;5.03;;;2.38;;
72275;SDS011;61204;49.980;8.358;2023-08-01T03:49:33;3.47;;;1.88;;
72275;SDS011;61204;49.980;8.358;2023-08-01T03:51:59;6.25;;;2.03;;
72275;SDS011;61204;49.980;8.358;2023-08-01T03:54:24;4.53;;;1.85;;
72275;SDS011;61204;49.980;8.358;2023-08-01T03:56:50;3.97;;;1.70;;
72275;SDS011;61204;49.980;8.358;2023-08-01T03:59:15;2.72;;;2.05;;
72275;SDS011;61204;49.980;8.358;2023-08-01T04:01:43;3.63;;;2.33;;
72275;SDS011;61204;49.980;8.358;2023-08-01T04:04:09;3.58;;;2.10;;
72275;SDS011;61204;49.980;8.358;2023-08-01T04:06:35;3.28;;;2.17;;
72275;SDS011;61204;49.980;8.358;2023-08-01T04:09:01;3.83;;;2.10;;
72275;SDS011;61204;49.980;8.358;2023-08-01T04:11:31;2.88;;;2.03;;
72275;SDS011;61204;49.980;8.358;2023-08-01T04:13:57;3.70;;;2.63;;
72275;SDS011;61204;49.980;8.358;2023-08-01T04:16:22;2.88;;;1.85;;
72275;SDS011;61204;49.980;8.358;2023-08-01T04:18:48;3.03;;;1.88;;
72275;SDS011;61204;49.980;8.358;2023-08-01T04:21:16;3.47;;;2.25;;
72275;SDS011;61204;49.980;8.358;2023-08-01T04:23:43;4.18;;;2.28;;
72275;SDS011;61204;49.980;8.358;2023-08-01T04:26:09;4.05;;;2.13;;
72275;SDS011;61204;49.980;8.358;2023-08-01T04:28:34;3.03;;;2.00;;
72275;SDS011;61204;49.980;8.358;2023-08-01T04:31:00;3.72;;;2.10;;
72275;SDS011;61204;49.980;8.358;2023-08-01T04:33:28;6.43;;;2.20;;
72275;SDS011;61204;49.980;8.358;2023-08-01T04:35:54;3.35;;;1.92;;
72275;SDS011;61204;49.980;8.358;2023-08-01T04:38:21;3.83;;;1.33;;
72275;SDS011;61204;49.980;8.358;2023-08-01T04:40:47;2.40;;;1.30;;
72275;SDS011;61204;49.980;8.358;2023-08-01T04:43:13;2.47;;;1.75;;
72275;SDS011;61204;49.980;8.358;2023-08-01T04:45:38;1.90;;;1.52;;
72275;SDS011;61204;49.980;8.358;2023-08-01T04:48:04;2.47;;;1.70;;
72275;SDS011;61204;49.980;8.358;2023-08-01T04:50:30;3.10;;;1.42;;
72275;SDS011;61204;49.980;8.358;2023-08-01T04:52:55;2.13;;;1.20;;
72275;SDS011;61204;49.980;8.358;2023-08-01T04:55:21;1.85;;;1.40;;
72275;SDS011;61204;49.980;8.358;2023-08-01T04:57:47;3.83;;;1.30;;
72275;SDS011;61204;49.980;8.358;2023-08-01T05:00:14;2.58;;;1.20;;
72275;SDS011;61204;49.980;8.358;2023-08-01T05:02:40;1.83;;;1.08;;
72275;SDS011;61204;49.980;8.358;2023-08-01T05:05:06;2.28;;;1.00;;
72275;SDS011;61204;49.980;8.358;2023-08-01T05:07:32;3.13;;;1.23;;
72275;SDS011;61204;49.980;8.358;2023-08-01T05:09:57;1.75;;;1.35;;
72275;SDS011;61204;49.980;8.358;2023-08-01T05:12:23;3.10;;;1.77;;
72275;SDS011;61204;49.980;8.358;2023-08-01T05:14:48;2.75;;;1.20;;
72275;SDS011;61204;49.980;8.358;2023-08-01T05:17:14;1.60;;;1.02;;
72275;SDS011;61204;49.980;8.358;2023-08-01T05:19:40;2.53;;;1.40;;
72275;SDS011;61204;49.980;8.358;2023-08-01T05:22:06;1.63;;;1.13;;
72275;SDS011;61204;49.980;8.358;2023-08-01T05:24:31;3.00;;;1.27;;
72275;SDS011;61204;49.980;8.358;2023-08-01T05:26:57;2.20;;;1.10;;
72275;SDS011;61204;49.980;8.358;2023-08-01T05:29:22;2.03;;;1.10;;
72275;SDS011;61204;49.980;8.358;2023-08-01T05:31:48;2.05;;;1.17;;
72275;SDS011;61204;49.980;8.358;2023-08-01T05:34:14;1.80;;;1.30;;
72275;SDS011;61204;49.980;8.358;2023-08-01T05:36:39;1.88;;;1.10;;
72275;SDS011;61204;49.980;8.358;2023-08-01T05:39:05;3.38;;;1.60;;
72275;SDS011;61204;49.980;8.358;2023-08-01T05:41:33;2.80;;;1.30;;
72275;SDS011;61204;49.980;8.358;2023-08-01T05:43:58;2.70;;;1.50;;
72275;SDS011;61204;49.980;8.358;2023-08-01T05:46:24;3.78;;;1.13;;
72275;SDS011;61204;49.980;8.358;2023-08-01T05:48:49;3.35;;;1.70;;
72275;SDS011;61204;49.980;8.358;2023-08-01T05:51:15;3.92;;;1.83;;
72275;SDS011;61204;49.980;8.358;2023-08-01T05:53:40;2.42;;;1.52;;
72275;SDS011;61204;49.980;8.358;2023-08-01T05:56:06;2.95;;;1.73;;
72275;SDS011;61204;49.980;8.358;2023-08-01T05:58:32;2.75;;;1.88;;
72275;SDS011;61204;49.980;8.358;2023-08-01T06:00:57;5.38;;;1.55;;
72275;SDS011;61204;49.980;8.358;2023-08-01T06:03:23;2.85;;;1.80;;
72275;SDS011;61204;49.980;8.358;2023-08-01T06:05:49;3.35;;;1.52;;
72275;SDS011;61204;49.980;8.358;2023-08-01T06:08:14;2.75;;;1.40;;
72275;SDS011;61204;49.980;8.358;2023-08-01T06:10:40;2.58;;;1.23;;
72275;SDS011;61204;49.980;8.358;2023-08-01T06:13:07;1.90;;;1.05;;
72275;SDS011;61204;49.980;8.358;2023-08-01T06:15:33;2.42;;;1.20;;
72275;SDS011;61204;49.980;8.358;2023-08-01T06:17:59;2.03;;;1.40;;
72275;SDS011;61204;49.980;8.358;2023-08-01T06:20:24;2.25;;;1.27;;
72275;SDS011;61204;49.980;8.358;2023-08-01T06:22:50;2.15;;;1.33;;
72275;SDS011;61204;49.980;8.358;2023-08-01T06:25:16;2.65;;;1.30;;
72275;SDS011;61204;49.980;8.358;2023-08-01T06:27:42;2.83;;;1.20;;
72275;SDS011;61204;49.980;8.358;2023-08-01T06:30:07;2.15;;;1.25;;
72275;SDS011;61204;49.980;8.358;2023-08-01T06:32:35;1.85;;;1.30;;
72275;SDS011;61204;49.980;8.358;2023-08-01T06:35:02;2.70;;;1.52;;
72275;SDS011;61204;49.980;8.358;2023-08-01T06:37:28;2.88;;;1.00;;
72275;SDS011;61204;49.980;8.358;2023-08-01T06:39:54;2.13;;;0.88;;
72275;SDS011;61204;49.980;8.358;2023-08-01T06:42:20;1.85;;;1.20;;
72275;SDS011;61204;49.980;8.358;2023-08-01T06:44:46;2.78;;;1.20;;
72275;SDS011;61204;49.980;8.358;2023-08-01T06:47:11;2.58;;;1.00;;
72275;SDS011;61204;49.980;8.358;2023-08-01T06:49:39;2.40;;;1.27;;
72275;SDS011;61204;49.980;8.358;2023-08-01T06:52:08;3.28;;;1.25;;
72275;SDS011;61204;49.980;8.358;2023-08-01T06:54:34;2.20;;;1.05;;
72275;SDS011;61204;49.980;8.358;2023-08-01T06:56:59;1.92;;;1.08;;
72275;SDS011;61204;49.980;8.358;2023-08-01T06:59:25;1.13;;;0.85;;
72275;SDS011;61204;49.980;8.358;2023-08-01T07:01:51;1.70;;;0.80;;
72275;SDS011;61204;49.980;8.358;2023-08-01T07:04:19;0.85;;;0.50;;
72275;SDS011;61204;49.980;8.358;2023-08-01T07:06:44;1.70;;;0.85;;
72275;SDS011;61204;49.980;8.358;2023-08-01T07:09:12;0.38;;;0.30;;
72275;SDS011;61204;49.980;8.358;2023-08-01T07:11:38;1.98;;;0.50;;
72275;SDS011;61204;49.980;8.358;2023-08-01T07:14:06;1.90;;;0.22;;
72275;SDS011;61204;49.980;8.358;2023-08-01T07:16:31;0.77;;;0.20;;
72275;SDS011;61204;49.980;8.358;2023-08-01T07:18:59;1.00;;;0.22;;
72275;SDS011;61204;49.980;8.358;2023-08-01T07:21:26;0.95;;;0.40;;
72275;SDS011;61204;49.980;8.358;2023-08-01T07:23:52;0.73;;;0.40;;
72275;SDS011;61204;49.980;8.358;2023-08-01T07:26:17;0.82;;;0.30;;
72275;SDS011;61204;49.980;8.358;2023-08-01T07:28:43;0.30;;;0.20;;
72275;SDS011;61204;49.980;8.358;2023-08-01T07:31:11;0.47;;;0.22;;
72275;SDS011;61204;49.980;8.358;2023-08-01T07:33:36;1.05;;;0.30;;
72275;SDS011;61204;49.980;8.358;2023-08-01T07:36:02;0.45;;;0.20;;
72275;SDS011;61204;49.980;8.358;2023-08-01T07:38:29;0.30;;;0.20;;
72275;SDS011;61204;49.980;8.358;2023-08-01T07:41:01;2.03;;;0.43;;
72275;SDS011;61204;49.980;8.358;2023-08-01T07:43:29;1.08;;;0.68;;
72275;SDS011;61204;49.980;8.358;2023-08-01T07:45:58;1.85;;;0.43;;
72275;SDS011;61204;49.980;8.358;2023-08-01T07:48:25;1.02;;;0.50;;
72275;SDS011;61204;49.980;8.358;2023-08-01T07:50:51;0.75;;;0.30;;
72275;SDS011;61204;49.980;8.358;2023-08-01T07:53:17;0.65;;;0.32;;
72275;SDS011;61204;49.980;8.358;2023-08-01T07:55:42;0.50;;;0.30;;
72275;SDS011;61204;49.980;8.358;2023-08-01T07:58:10;0.63;;;0.30;;
72275;SDS011;61204;49.980;8.358;2023-08-01T08:00:38;0.43;;;0.32;;
72275;SDS011;61204;49.980;8.358;2023-08-01T08:03:04;0.52;;;0.20;;
72275;SDS011;61204;49.980;8.358;2023-08-01T08:05:30;2.35;;;0.40;;
72275;SDS011;61204;49.980;8.358;2023-08-01T08:07:56;0.40;;;0.40;;
72275;SDS011;61204;49.980;8.358;2023-08-01T08:10:22;0.52;;;0.43;;
72275;SDS011;61204;49.980;8.358;2023-08-01T08:12:50;1.25;;;1.05;;
72275;SDS011;61204;49.980;8.358;2023-08-01T08:15:16;0.98;;;0.40;;
72275;SDS011;61204;49.980;8.358;2023-08-01T08:17:45;0.68;;;0.40;;
72275;SDS011;61204;49.980;8.358;2023-08-01T08:20:10;1.40;;;0.60;;
72275;SDS011;61204;49.980;8.358;2023-08-01T08:22:36;1.00;;;0.60;;
72275;SDS011;61204;49.980;8.358;2023-08-01T08:25:01;0.73;;;0.52;;
72275;SDS011;61204;49.980;8.358;2023-08-01T08:27:27;0.90;;;0.40;;
72275;SDS011;61204;49.980;8.358;2023-08-01T08:29:53;0.65;;;0.45;;
72275;SDS011;61204;49.980;8.358;2023-08-01T08:32:19;0.95;;;0.40;;
72275;SDS011;61204;49.980;8.358;2023-08-01T08:34:44;1.63;;;0.57;;
72275;SDS011;61204;49.980;8.358;2023-08-01T08:37:10;1.40;;;0.63;;
72275;SDS011;61204;49.980;8.358;2023-08-01T08:39:35;0.50;;;0.38;;
72275;SDS011;61204;49.980;8.358;2023-08-01T08:42:01;2.10;;;0.57;;
72275;SDS011;61204;49.980;8.358;2023-08-01T08:44:27;1.13;;;0.35;;
72275;SDS011;61204;49.980;8.358;2023-08-01T08:46:55;1.98;;;0.45;;
72275;SDS011;61204;49.980;8.358;2023-08-01T08:49:32;1.00;;;0.63;;
72275;SDS011;61204;49.980;8.358;2023-08-01T08:51:58;0.88;;;0.30;;
72275;SDS011;61204;49.980;8.358;2023-08-01T08:54:24;0.47;;;0.40;;
72275;SDS011;61204;49.980;8.358;2023-08-01T08:56:54;0.40;;;0.30;;
72275;SDS011;61204;49.980;8.358;2023-08-01T08:59:23;0.77;;;0.40;;
72275;SDS011;61204;49.980;8.358;2023-08-01T09:01:54;0.40;;;0.30;;
72275;SDS011;61204;49.980;8.358;2023-08-01T09:04:20;0.28;;;0.28;;
72275;SDS011;61204;49.980;8.358;2023-08-01T09:06:48;0.90;;;0.57;;
72275;SDS011;61204;49.980;8.358;2023-08-01T09:09:20;0.70;;;0.50;;
72275;SDS011;61204;49.980;8.358;2023-08-01T09:11:48;0.73;;;0.40;;
72275;SDS011;61204;49.980;8.358;2023-08-01T09:14:17;0.40;;;0.35;;
72275;SDS011;61204;49.980;8.358;2023-08-01T09:16:45;1.25;;;0.60;;
72275;SDS011;61204;49.980;8.358;2023-08-01T09:19:18;0.98;;;0.60;;
72275;SDS011;61204;49.980;8.358;2023-08-01T09:21:47;1.27;;;0.60;;
72275;SDS011;61204;49.980;8.358;2023-08-01T09:26:45;1.77;;;0.70;;
72275;SDS011;61204;49.980;8.358;2023-08-01T09:29:15;1.20;;;0.50;;
72275;SDS011;61204;49.980;8.358;2023-08-01T09:31:43;0.70;;;0.50;;
72275;SDS011;61204;49.980;8.358;2023-08-01T09:34:22;1.13;;;0.40;;
72275;SDS011;61204;49.980;8.358;2023-08-01T09:36:58;2.83;;;0.50;;
72275;SDS011;61204;49.980;8.358;2023-08-01T09:39:25;1.02;;;0.50;;
72275;SDS011;61204;49.980;8.358;2023-08-01T09:41:57;1.20;;;0.55;;
72275;SDS011;61204;49.980;8.358;2023-08-01T09:44:26;0.83;;;0.50;;
72275;SDS011;61204;49.980;8.358;2023-08-01T09:46:58;1.33;;;0.50;;
72275;SDS011;61204;49.980;8.358;2023-08-01T09:49:29;2.22;;;0.60;;
72275;SDS011;61204;49.980;8.358;2023-08-01T09:51:56;0.88;;;0.50;;
72275;SDS011;61204;49.980;8.358;2023-08-01T09:54:23;1.45;;;0.63;;
72275;SDS011;61204;49.980;8.358;2023-08-01T09:56:50;1.60;;;0.68;;
72275;SDS011;61204;49.980;8.358;2023-08-01T09:59:20;0.38;;;0.32;;
72275;SDS011;61204;49.980;8.358;2023-08-01T10:01:52;1.35;;;0.50;;
72275;SDS011;61204;49.980;8.358;2023-08-01T10:04:28;0.55;;;0.40;;
72275;SDS011;61204;49.980;8.358;2023-08-01T10:06:59;0.95;;;0.50;;
72275;SDS011;61204;49.980;8.358;2023-08-01T10:09:36;1.20;;;0.77;;
72275;SDS011;61204;49.980;8.358;2023-08-01T10:12:04;2.20;;;0.60;;
72275;SDS011;61204;49.980;8.358;2023-08-01T10:14:32;1.33;;;0.50;;
72275;SDS011;61204;49.980;8.358;2023-08-01T10:16:58;2.50;;;0.70;;
72275;SDS011;61204;49.980;8.358;2023-08-01T10:19:25;1.88;;;0.80;;
72275;SDS011;61204;49.980;8.358;2023-08-01T10:21:51;1.35;;;0.90;;
72275;SDS011;61204;49.980;8.358;2023-08-01T10:24:20;1.08;;;0.68;;
72275;SDS011;61204;49.980;8.358;2023-08-01T10:26:49;1.60;;;0.63;;
72275;SDS011;61204;49.980;8.358;2023-08-01T10:29:15;1.45;;;0.63;;
72275;SDS011;61204;49.980;8.358;2023-08-01T10:31:50;0.98;;;0.47;;
72275;SDS011;61204;49.980;8.358;2023-08-01T10:34:18;1.40;;;0.50;;
72275;SDS011;61204;49.980;8.358;2023-08-01T10:36:54;0.65;;;0.45;;
72275;SDS011;61204;49.980;8.358;2023-08-01T10:39:23;1.90;;;0.93;;
72275;SDS011;61204;49.980;8.358;2023-08-01T10:41:59;1.52;;;0.77;;
72275;SDS011;61204;49.980;8.358;2023-08-01T10:44:30;1.35;;;0.80;;
72275;SDS011;61204;49.980;8.358;2023-08-01T10:47:04;0.82;;;0.55;;
72275;SDS011;61204;49.980;8.358;2023-08-01T10:52:16;1.80;;;0.90;;
72275;SDS011;61204;49.980;8.358;2023-08-01T10:54:57;1.98;;;0.45;;
72275;SDS011;61204;49.980;8.358;2023-08-01T10:57:30;2.38;;;0.60;;
72275;SDS011;61204;49.980;8.358;2023-08-01T11:00:00;1.67;;;0.70;;
72275;SDS011;61204;49.980;8.358;2023-08-01T11:02:34;1.77;;;1.30;;
72275;SDS011;61204;49.980;8.358;2023-08-01T11:05:02;1.38;;;0.80;;
72275;SDS011;61204;49.980;8.358;2023-08-01T11:07:31;1.50;;;0.70;;
72275;SDS011;61204;49.980;8.358;2023-08-01T11:10:08;1.58;;;0.93;;
72275;SDS011;61204;49.980;8.358;2023-08-01T11:12:39;2.35;;;0.90;;
72275;SDS011;61204;49.980;8.358;2023-08-01T11:15:09;1.95;;;0.73;;
72275;SDS011;61204;49.980;8.358;2023-08-01T11:17:40;2.22;;;0.70;;
72275;SDS011;61204;49.980;8.358;2023-08-01T11:20:19;1.52;;;0.60;;
72275;SDS011;61204;49.980;8.358;2023-08-01T11:22:49;2.15;;;0.70;;
72275;SDS011;61204;49.980;8.358;2023-08-01T11:28:13;0.98;;;0.68;;
72275;SDS011;61204;49.980;8.358;2023-08-01T11:30:41;1.25;;;0.55;;
72275;SDS011;61204;49.980;8.358;2023-08-01T11:33:14;1.05;;;0.68;;
72275;SDS011;61204;49.980;8.358;2023-08-01T11:35:52;1.88;;;0.70;;
72275;SDS011;61204;49.980;8.358;2023-08-01T11:38:25;1.10;;;0.63;;
72275;SDS011;61204;49.980;8.358;2023-08-01T11:40:58;1.60;;;0.77;;
72275;SDS011;61204;49.980;8.358;2023-08-01T11:43:25;0.80;;;0.55;;
72275;SDS011;61204;49.980;8.358;2023-08-01T11:45:52;1.48;;;0.50;;
72275;SDS011;61204;49.980;8.358;2023-08-01T11:48:21;1.20;;;0.50;;
72275;SDS011;61204;49.980;8.358;2023-08-01T11:50:49;1.70;;;0.93;;
72275;SDS011;61204;49.980;8.358;2023-08-01T11:53:22;1.52;;;0.70;;
72275;SDS011;61204;49.980;8.358;2023-08-01T11:55:48;1.65;;;0.73;;
72275;SDS011;61204;49.980;8.358;2023-08-01T11:58:29;1.15;;;0.60;;
72275;SDS011;61204;49.980;8.358;2023-08-01T12:03:47;1.20;;;0.50;;
72275;SDS011;61204;49.980;8.358;2023-08-01T12:06:20;1.42;;;0.80;;
72275;SDS011;61204;49.980;8.358;2023-08-01T12:08:50;1.25;;;0.80;;
72275;SDS011;61204;49.980;8.358;2023-08-01T12:14:07;2.45;;;0.80;;
72275;SDS011;61204;49.980;8.358;2023-08-01T12:16:40;0.82;;;0.50;;
72275;SDS011;61204;49.980;8.358;2023-08-01T12:19:10;2.25;;;0.57;;
72275;SDS011;61204;49.980;8.358;2023-08-01T12:21:44;0.97;;;0.67;;
72275;SDS011;61204;49.980;8.358;2023-08-01T12:24:10;1.15;;;0.80;;
72275;SDS011;61204;49.980;8.358;2023-08-01T12:26:36;1.63;;;0.70;;
72275;SDS011;61204;49.980;8.358;2023-08-01T12:29:04;1.38;;;0.60;;
72275;SDS011;61204;49.980;8.358;2023-08-01T12:31:30;2.22;;;0.80;;
72275;SDS011;61204;49.980;8.358;2023-08-01T12:33:56;1.65;;;0.80;;
72275;SDS011;61204;49.980;8.358;2023-08-01T12:36:22;2.10;;;0.77;;
72275;SDS011;61204;49.980;8.358;2023-08-01T12:38:48;1.52;;;0.73;;
72275;SDS011;61204;49.980;8.358;2023-08-01T12:41:14;1.42;;;0.73;;
72275;SDS011;61204;49.980;8.358;2023-08-01T12:43:40;2.00;;;0.70;;
72275;SDS011;61204;49.980;8.358;2023-08-01T12:46:06;1.00;;;0.70;;
72275;SDS011;61204;49.980;8.358;2023-08-01T12:48:32;1.95;;;0.60;;
72275;SDS011;61204;49.980;8.358;2023-08-01T12:50:57;1.30;;;0.60;;
72275;SDS011;61204;49.980;8.358;2023-08-01T12:53:25;1.15;;;0.65;;
72275;SDS011;61204;49.980;8.358;2023-08-01T12:55:51;1.67;;;0.70;;
72275;SDS011;61204;49.980;8.358;2023-08-01T12:58:17;1.45;;;0.70;;
72275;SDS011;61204;49.980;8.358;2023-08-01T13:00:44;2.97;;;0.65;;
72275;SDS011;61204;49.980;8.358;2023-08-01T13:03:11;2.00;;;0.70;;
72275;SDS011;61204;49.980;8.358;2023-08-01T13:05:38;1.08;;;0.60;;
72275;SDS011;61204;49.980;8.358;2023-08-01T13:08:07;3.95;;;0.70;;
72275;SDS011;61204;49.980;8.358;2023-08-01T13:10:35;1.42;;;0.50;;
72275;SDS011;61204;49.980;8.358;2023-08-01T13:13:03;1.98;;;0.70;;
72275;SDS011;61204;49.980;8.358;2023-08-01T13:15:33;1.45;;;0.80;;
72275;SDS011;61204;49.980;8.358;2023-08-01T13:17:58;1.17;;;0.60;;
72275;SDS011;61204;49.980;8.358;2023-08-01T13:20:24;2.13;;;0.88;;
72275;SDS011;61204;49.980;8.358;2023-08-01T13:22:51;2.17;;;0.75;;
72275;SDS011;61204;49.980;8.358;2023-08-01T13:25:18;0.82;;;0.57;;
72275;SDS011;61204;49.980;8.358;2023-08-01T13:27:44;0.85;;;0.47;;
72275;SDS011;61204;49.980;8.358;2023-08-01T13:30:09;1.48;;;0.80;;
72275;SDS011;61204;49.980;8.358;2023-08-01T13:32:39;1.77;;;0.70;;
72275;SDS011;61204;49.980;8.358;2023-08-01T13:35:06;0.95;;;0.50;;
72275;SDS011;61204;49.980;8.358;2023-08-01T13:37:32;1.08;;;0.50;;
72275;SDS011;61204;49.980;8.358;2023-08-01T13:39:57;1.52;;;0.70;;
72275;SDS011;61204;49.980;8.358;2023-08-01T13:42:23;1.00;;;0.55;;
72275;SDS011;61204;49.980;8.358;2023-08-01T13:44:49;2.63;;;0.77;;
72275;SDS011;61204;49.980;8.358;2023-08-01T13:47:15;1.02;;;0.60;;
72275;SDS011;61204;49.980;8.358;2023-08-01T13:49:43;1.70;;;0.60;;
72275;SDS011;61204;49.980;8.358;2023-08-01T13:52:08;2.13;;;0.80;;
72275;SDS011;61204;49.980;8.358;2023-08-01T13:54:34;0.80;;;0.50;;
72275;SDS011;61204;49.980;8.358;2023-08-01T13:57:00;0.65;;;0.45;;
72275;SDS011;61204;49.980;8.358;2023-08-01T13:59:28;2.17;;;0.95;;
72275;SDS011;61204;49.980;8.358;2023-08-01T14:01:54;1.98;;;0.80;;
72275;SDS011;61204;49.980;8.358;2023-08-01T14:04:22;3.47;;;1.25;;
72275;SDS011;61204;49.980;8.358;2023-08-01T14:06:48;3.47;;;1.35;;
72275;SDS011;61204;49.980;8.358;2023-08-01T14:09:13;1.42;;;0.80;;
72275;SDS011;61204;49.980;8.358;2023-08-01T14:11:39;2.88;;;1.00;;
72275;SDS011;61204;49.980;8.358;2023-08-01T14:14:07;1.48;;;0.73;;
72275;SDS011;61204;49.980;8.358;2023-08-01T14:16:35;3.33;;;1.02;;
72275;SDS011;61204;49.980;8.358;2023-08-01T14:19:01;1.52;;;0.80;;
72275;SDS011;61204;49.980;8.358;2023-08-01T14:21:28;4.72;;;1.33;;
72275;SDS011;61204;49.980;8.358;2023-08-01T14:23:54;1.67;;;0.70;;
72275;SDS011;61204;49.980;8.358;2023-08-01T14:26:20;2.38;;;0.70;;
72275;SDS011;61204;49.980;8.358;2023-08-01T14:28:45;1.65;;;0.60;;
72275;SDS011;61204;49.980;8.358;2023-08-01T14:31:11;1.70;;;0.70;;
72275;SDS011;61204;49.980;8.358;2023-08-01T14:33:37;1.92;;;0.90;;
72275;SDS011;61204;49.980;8.358;2023-08-01T14:36:06;2.65;;;0.88;;
72275;SDS011;61204;49.980;8.358;2023-08-01T14:38:34;1.90;;;0.80;;
72275;SDS011;61204;49.980;8.358;2023-08-01T14:41:03;2.55;;;1.13;;
72275;SDS011;61204;49.980;8.358;2023-08-01T14:43:29;2.50;;;0.90;;
72275;SDS011;61204;49.980;8.358;2023-08-01T14:45:56;2.72;;;0.93;;
72275;SDS011;61204;49.980;8.358;2023-08-01T14:48:22;1.73;;;0.77;;
72275;SDS011;61204;49.980;8.358;2023-08-01T14:50:48;0.90;;;0.52;;
72275;SDS011;61204;49.980;8.358;2023-08-01T14:53:13;1.58;;;0.73;;
72275;SDS011;61204;49.980;8.358;2023-08-01T14:55:39;1.80;;;0.45;;
72275;SDS011;61204;49.980;8.358;2023-08-01T14:58:07;1.75;;;0.93;;
72275;SDS011;61204;49.980;8.358;2023-08-01T15:00:38;1.63;;;0.70;;